createdAt,value
2019-05-15T00:01:02.762Z,12.03
2019-05-15T00:03:39.120Z,12.23
2019-05-15T00:06:13.099Z,12.07
2019-05-15T00:08:48.727Z,12.30
2019-05-15T00:11:23.936Z,12.58
2019-05-15T00:13:58.936Z,12.70
2019-05-15T00:16:33.614Z,12.68
2019-05-15T00:19:08.685Z,13.10
2019-05-15T00:21:43.080Z,12.90
2019-05-15T00:24:17.855Z,12.60
2019-05-15T00:26:52.284Z,13.15
2019-05-15T00:29:28.739Z,14.33
2019-05-15T00:32:02.125Z,13.88
2019-05-15T00:34:37.880Z,13.93
2019-05-15T00:37:12.291Z,14.40
2019-05-15T00:39:48.443Z,13.80
2019-05-15T00:42:22.481Z,14.45
2019-05-15T00:44:58.448Z,13.80
2019-05-15T00:47:32.520Z,13.72
2019-05-15T00:50:08.921Z,13.32
2019-05-15T00:52:43.545Z,14.30
2019-05-15T00:55:19.140Z,13.65
2019-05-15T00:57:53.384Z,14.58
2019-05-15T01:00:44.979Z,16.07
2019-05-15T01:03:19.016Z,15.55
2019-05-15T01:05:53.084Z,15.15
2019-05-15T01:08:28.439Z,15.75
2019-05-15T01:11:02.410Z,15.93
2019-05-15T01:13:38.733Z,16.00
2019-05-15T01:16:12.392Z,15.40
2019-05-15T01:18:46.242Z,16.07
2019-05-15T01:21:20.614Z,16.17
2019-05-15T01:23:54.857Z,16.73
2019-05-15T01:26:29.139Z,17.57
2019-05-15T01:29:03.339Z,17.00
2019-05-15T01:31:38.015Z,17.40
2019-05-15T01:34:12.153Z,17.90
2019-05-15T01:36:48.698Z,17.67
2019-05-15T01:39:22.338Z,18.50
2019-05-15T01:41:58.422Z,18.50
2019-05-15T01:44:33.302Z,18.37
2019-05-15T01:47:08.464Z,19.10
2019-05-15T01:49:42.529Z,18.62
2019-05-15T01:52:18.772Z,18.90
2019-05-15T01:54:53.636Z,17.98
2019-05-15T01:57:28.752Z,19.10
2019-05-15T02:00:03.110Z,20.05
2019-05-15T02:02:39.249Z,19.35
2019-05-15T02:05:13.596Z,20.15
2019-05-15T02:07:47.982Z,20.32
2019-05-15T02:10:22.189Z,20.52
2019-05-15T02:12:58.649Z,21.48
2019-05-15T02:15:33.907Z,21.68
2019-05-15T02:18:08.491Z,23.15
2019-05-15T02:20:43.789Z,22.40
2019-05-15T02:23:18.889Z,22.55
2019-05-15T02:25:53.285Z,22.73
2019-05-15T02:28:28.894Z,22.32
2019-05-15T02:31:04.558Z,22.32
2019-05-15T02:33:39.921Z,22.13
2019-05-15T02:36:15.074Z,22.48
2019-05-15T02:38:49.358Z,22.22
2019-05-15T02:41:23.804Z,21.87
2019-05-15T02:43:59.195Z,22.07
2019-05-15T02:46:33.485Z,22.52
2019-05-15T02:49:08.801Z,21.70
2019-05-15T02:51:43.057Z,21.48
2019-05-15T02:54:19.589Z,22.35
2019-05-15T02:56:53.203Z,22.60
2019-05-15T02:59:29.117Z,23.60
2019-05-15T03:02:03.290Z,24.07
2019-05-15T03:04:40.023Z,23.02
2019-05-15T03:07:13.606Z,24.20
2019-05-15T03:09:49.694Z,24.00
2019-05-15T03:12:23.367Z,24.90
2019-05-15T03:14:59.846Z,24.30
2019-05-15T03:17:33.353Z,25.70
2019-05-15T03:20:10.403Z,24.95
2019-05-15T03:22:43.659Z,25.40
2019-05-15T03:25:19.143Z,25.37
2019-05-15T03:27:53.189Z,25.43
2019-05-15T03:30:32.438Z,26.00
2019-05-15T03:33:15.823Z,25.55
2019-05-15T03:35:42.721Z,26.07
2019-05-15T03:38:19.228Z,27.27
2019-05-15T03:40:52.670Z,25.52
2019-05-15T03:43:29.276Z,25.68
2019-05-15T03:46:08.775Z,24.72
2019-05-15T03:48:42.960Z,25.08
2019-05-15T03:51:19.878Z,27.60
2019-05-15T03:53:52.965Z,27.87
2019-05-15T03:56:29.589Z,29.37
2019-05-15T03:59:03.675Z,30.35
2019-05-15T04:01:43.340Z,30.17
2019-05-15T04:04:14.267Z,29.40
2019-05-15T04:06:49.867Z,29.45
2019-05-15T04:09:23.511Z,29.55
2019-05-15T04:12:00.018Z,29.63
2019-05-15T04:14:33.481Z,30.40
2019-05-15T04:17:09.102Z,28.92
2019-05-15T04:19:43.115Z,28.15
2019-05-15T04:22:19.806Z,28.77
2019-05-15T04:24:54.635Z,30.97
2019-05-15T04:27:29.256Z,29.00
2019-05-15T04:30:03.620Z,29.27
2019-05-15T04:32:39.901Z,29.00
2019-05-15T04:35:14.027Z,28.17
2019-05-15T04:37:49.462Z,30.30
2019-05-15T04:40:24.101Z,28.98
2019-05-15T04:42:59.226Z,28.73
2019-05-15T04:45:35.176Z,29.63
2019-05-15T04:48:10.460Z,28.25
2019-05-15T04:50:45.188Z,27.30
2019-05-15T04:53:19.557Z,28.92
2019-05-15T04:55:54.859Z,27.75
2019-05-15T04:58:29.839Z,27.58
2019-05-15T05:01:04.187Z,27.58
2019-05-15T05:03:39.419Z,27.75
2019-05-15T05:06:14.371Z,28.57
2019-05-15T05:08:49.083Z,27.82
2019-05-15T05:11:24.147Z,27.80
2019-05-15T05:13:59.107Z,29.07
2019-05-15T05:16:33.663Z,28.98
2019-05-15T05:19:08.949Z,28.32
2019-05-15T05:21:43.462Z,29.30
2019-05-15T05:24:18.528Z,29.40
2019-05-15T05:26:52.948Z,29.07
2019-05-15T05:29:28.011Z,30.15
2019-05-15T05:32:02.957Z,29.27
2019-05-15T05:34:39.111Z,29.35
2019-05-15T05:37:13.616Z,29.60
2019-05-15T05:39:48.395Z,30.40
2019-05-15T05:42:23.010Z,31.62
2019-05-15T05:44:58.238Z,29.77
2019-05-15T05:47:33.032Z,30.55
2019-05-15T05:50:08.095Z,30.50
2019-05-15T05:52:42.706Z,30.57
2019-05-15T05:55:17.883Z,31.37
2019-05-15T05:57:52.441Z,30.43
2019-05-15T06:00:30.591Z,31.73
2019-05-15T06:03:04.834Z,32.35
2019-05-15T06:05:39.228Z,32.28
2019-05-15T06:08:13.593Z,33.35
2019-05-15T06:10:49.516Z,33.85
2019-05-15T06:13:23.960Z,33.98
2019-05-15T06:15:59.059Z,33.95
2019-05-15T06:18:33.846Z,35.48
2019-05-15T06:21:09.151Z,61.20
2019-05-15T06:23:46.202Z,45.45
2019-05-15T06:26:20.047Z,42.60
2019-05-15T06:28:54.329Z,40.40
2019-05-15T06:31:28.932Z,39.73
2019-05-15T06:34:03.191Z,38.95
2019-05-15T06:36:39.268Z,40.50
2019-05-15T06:39:13.575Z,38.67
2019-05-15T06:41:48.949Z,40.52
2019-05-15T06:44:23.328Z,38.78
2019-05-15T06:46:58.721Z,39.15
2019-05-15T06:49:33.234Z,38.33
2019-05-15T06:52:08.851Z,36.95
2019-05-15T06:54:44.638Z,38.75
2019-05-15T06:57:18.799Z,37.38
2019-05-15T06:59:52.873Z,36.73
2019-05-15T07:02:28.557Z,36.53
2019-05-15T07:05:03.088Z,35.92
2019-05-15T07:07:38.713Z,35.33
2019-05-15T07:10:13.785Z,34.05
2019-05-15T07:12:51.005Z,32.42
2019-05-15T07:15:24.646Z,31.25
2019-05-15T07:17:59.069Z,29.85
2019-05-15T07:20:33.974Z,30.15
2019-05-15T07:23:08.813Z,28.87
2019-05-15T07:25:43.268Z,28.47
2019-05-15T07:28:18.155Z,26.95
2019-05-15T07:30:52.939Z,26.60
2019-05-15T07:33:36.697Z,25.95
2019-05-15T07:36:03.852Z,24.85
2019-05-15T07:38:39.150Z,24.40
2019-05-15T07:41:13.890Z,23.25
2019-05-15T07:44:13.603Z,22.75
2019-05-15T07:46:49.590Z,22.95
2019-05-15T07:49:23.492Z,21.12
2019-05-15T07:51:59.165Z,20.97
2019-05-15T07:54:33.641Z,21.10
2019-05-15T07:57:09.255Z,20.77
2019-05-15T07:59:43.712Z,20.10
2019-05-15T08:02:19.071Z,18.98
2019-05-15T08:04:53.504Z,18.32
2019-05-15T08:07:28.150Z,19.30
2019-05-15T08:10:02.440Z,17.57
2019-05-15T08:12:39.163Z,18.07
2019-05-15T08:15:18.274Z,17.40
2019-05-15T08:18:05.602Z,16.27
2019-05-15T08:20:31.229Z,16.97
2019-05-15T08:23:05.450Z,16.37
2019-05-15T08:25:39.698Z,16.32
2019-05-15T08:28:14.027Z,14.87
2019-05-15T08:30:49.444Z,14.60
2019-05-15T08:33:24.157Z,15.32
2019-05-15T08:35:58.814Z,14.50
2019-05-15T08:38:33.631Z,14.00
2019-05-15T08:41:11.405Z,14.10
2019-05-15T08:43:44.163Z,14.25
2019-05-15T08:46:18.832Z,14.03
2019-05-15T08:48:53.358Z,14.00
2019-05-15T08:51:28.439Z,12.90
2019-05-15T08:54:02.832Z,13.70
2019-05-15T08:56:39.301Z,13.30
2019-05-15T08:59:13.025Z,13.55
2019-05-15T09:01:49.000Z,12.37
2019-05-15T09:04:30.829Z,13.30
2019-05-15T09:07:01.326Z,13.35
2019-05-15T09:09:35.063Z,13.83
2019-05-15T09:12:30.701Z,14.30
2019-05-15T09:15:10.087Z,14.13
2019-05-15T09:17:45.288Z,14.30
